Time;durP1;ratioP1;P1;durP2;ratioP2;P2;SDS_P1;SDS_P2;PMS_P1;PMS_P2;Temp;Humidity;BMP_temperature;BMP_pressure;BME280_temperature;BME280_humidity;BME280_pressure;Samples;Min_cycle;Max_cycle;Signal;HPM_P1;HPM_P2
2024/01/03 00:00:51;;;;;;;4.07;3.90;;;7.80;88.20;;;;;;6312596;28;20240;-81
2024/01/03 00:03:55;;;;;;;3.60;3.50;;;7.80;88.00;;;;;;6313691;28;20228;-83
2024/01/03 00:06:58;;;;;;;4.20;4.00;;;7.90;88.00;;;;;;6288568;28;20729;-82
2024/01/03 00:10:12;;;;;;;4.00;3.80;;;7.90;87.80;;;;;;6296762;28;20390;-82
2024/01/03 00:14:03;;;;;;;4.47;4.37;;;7.80;87.90;;;;;;6300314;28;20780;-79
2024/01/03 00:17:07;;;;;;;4.10;4.00;;;7.80;88.00;;;;;;6291175;28;20229;-80
2024/01/03 00:20:11;;;;;;;4.10;4.00;;;7.90;88.20;;;;;;6290046;28;20237;-80
2024/01/03 00:23:16;;;;;;;4.07;3.97;;;7.90;88.00;;;;;;6302407;28;20364;-79
2024/01/03 00:26:21;;;;;;;3.30;3.30;;;8.00;87.90;;;;;;6305766;28;20237;-83
2024/01/03 00:29:51;;;;;;;3.40;3.33;;;8.00;88.00;;;;;;6307298;28;20232;-83
2024/01/03 00:32:54;;;;;;;3.27;3.17;;;8.00;87.90;;;;;;6303807;28;20236;-83
2024/01/03 00:36:08;;;;;;;3.27;3.27;;;8.00;87.80;;;;;;6315285;28;20248;-84
2024/01/03 00:39:13;;;;;;;3.40;3.40;;;8.00;87.80;;;;;;6299298;28;20709;-81
2024/01/03 00:42:18;;;;;;;3.40;3.30;;;8.00;88.00;;;;;;6299734;28;20237;-84
2024/01/03 00:45:21;;;;;;;3.00;3.00;;;8.00;87.80;;;;;;6304808;28;20233;-81
2024/01/03 00:48:24;;;;;;;3.30;3.20;;;8.00;88.00;;;;;;6309834;28;20237;-82
2024/01/03 00:51:28;;;;;;;3.03;3.03;;;8.00;87.80;;;;;;6283591;28;1137846;-82
2024/01/03 00:54:31;;;;;;;3.10;3.10;;;8.10;87.70;;;;;;6318948;28;20256;-80
2024/01/03 00:57:36;;;;;;;3.10;3.10;;;8.10;87.80;;;;;;6302665;28;20236;-78
2024/01/03 01:00:40;;;;;;;2.53;2.53;;;8.10;87.60;;;;;;6306482;28;20233;-82
2024/01/03 01:03:43;;;;;;;3.20;3.10;;;8.10;87.60;;;;;;6303747;28;20232;-82
2024/01/03 01:06:46;;;;;;;3.50;3.30;;;8.20;87.40;;;;;;6315256;28;20232;-81
2024/01/03 01:09:49;;;;;;;3.43;3.27;;;8.20;87.40;;;;;;6300045;28;20486;-83
2024/01/03 01:12:55;;;;;;;2.90;2.90;;;8.10;87.40;;;;;;6296383;28;20703;-80
2024/01/03 01:15:58;;;;;;;2.70;2.70;;;8.20;87.40;;;;;;6302256;28;20708;-82
2024/01/03 01:19:01;;;;;;;2.70;2.70;;;8.30;87.20;;;;;;6293902;28;20243;-80
2024/01/03 01:22:05;;;;;;;3.13;3.13;;;8.30;86.70;;;;;;6302563;28;20235;-79
2024/01/03 01:25:08;;;;;;;2.70;2.70;;;8.30;86.60;;;;;;6295820;28;20234;-82
2024/01/03 01:28:16;;;;;;;3.00;3.00;;;8.30;86.40;;;;;;6310861;28;20233;-80
2024/01/03 01:31:19;;;;;;;2.70;2.60;;;8.20;86.60;;;;;;6291953;28;20280;-81
2024/01/03 01:34:22;;;;;;;2.50;2.50;;;8.20;86.80;;;;;;6298532;28;20252;-80
2024/01/03 01:37:25;;;;;;;2.70;2.60;;;8.30;86.50;;;;;;6302527;28;20244;-80
2024/01/03 01:40:30;;;;;;;2.53;2.43;;;8.30;86.20;;;;;;6296121;28;20297;-81
2024/01/03 01:43:34;;;;;;;2.83;2.63;;;8.30;86.30;;;;;;6309316;28;20318;-83
2024/01/03 01:46:39;;;;;;;2.83;2.73;;;8.30;86.00;;;;;;6293779;28;20245;-82
2024/01/03 01:49:43;;;;;;;2.50;2.50;;;8.30;86.00;;;;;;6303476;28;20609;-80
2024/01/03 01:52:47;;;;;;;2.53;2.43;;;8.30;86.00;;;;;;6310944;28;20231;-82
2024/01/03 01:55:51;;;;;;;2.83;2.73;;;8.30;85.80;;;;;;6307108;28;20225;-82
2024/01/03 01:58:56;;;;;;;2.50;2.50;;;8.20;85.60;;;;;;6297930;28;20307;-80
2024/01/03 02:02:00;;;;;;;2.80;2.80;;;8.20;85.70;;;;;;6305320;28;20236;-81
2024/01/03 02:05:03;;;;;;;3.00;2.80;;;8.20;85.90;;;;;;6314525;28;20236;-82
2024/01/03 02:08:08;;;;;;;2.40;2.40;;;8.20;85.70;;;;;;6314148;28;20237;-80
2024/01/03 02:11:12;;;;;;;2.50;2.50;;;8.20;85.70;;;;;;6273321;28;20754;-81
2024/01/03 02:14:20;;;;;;;2.40;2.40;;;8.20;85.70;;;;;;6306299;28;20236;-79
2024/01/03 02:17:23;;;;;;;2.37;2.37;;;8.10;85.60;;;;;;6302597;28;20752;-78
2024/01/03 02:20:31;;;;;;;5.20;2.60;;;8.10;85.90;;;;;;6314663;28;20818;-80
2024/01/03 02:23:36;;;;;;;2.40;2.40;;;8.20;85.70;;;;;;6295766;28;20410;-82
2024/01/03 02:26:42;;;;;;;2.33;2.33;;;8.30;85.30;;;;;;6289685;28;20241;-78
2024/01/03 02:29:47;;;;;;;2.43;2.33;;;8.30;85.10;;;;;;6300966;28;20331;-81
2024/01/03 02:32:50;;;;;;;3.23;2.93;;;8.30;85.10;;;;;;6302104;28;20314;-81
2024/01/03 02:35:53;;;;;;;2.30;2.30;;;8.40;84.80;;;;;;6297916;28;20238;-80
2024/01/03 02:38:59;;;;;;;2.17;2.17;;;8.40;84.70;;;;;;6292347;28;20374;-79
2024/01/03 02:42:03;;;;;;;2.23;2.23;;;8.50;84.60;;;;;;6303665;28;20266;-80
2024/01/03 02:45:07;;;;;;;2.10;2.10;;;8.50;84.40;;;;;;6299756;28;20276;-81
2024/01/03 02:48:10;;;;;;;2.43;2.43;;;8.50;84.30;;;;;;6300628;28;20378;-81
2024/01/03 02:51:18;;;;;;;2.20;2.20;;;8.60;84.00;;;;;;6298198;28;20714;-80
2024/01/03 02:54:23;;;;;;;2.37;2.33;;;8.60;84.10;;;;;;6313860;28;20317;-80
2024/01/03 02:57:26;;;;;;;2.40;2.23;;;8.60;84.00;;;;;;6313533;28;20614;-80
2024/01/03 03:00:29;;;;;;;2.20;2.20;;;8.60;84.10;;;;;;6304198;28;20243;-77
2024/01/03 03:03:32;;;;;;;2.30;2.30;;;8.60;83.80;;;;;;6304543;28;20236;-80
2024/01/03 03:06:35;;;;;;;2.27;2.27;;;8.70;83.70;;;;;;6307992;28;20226;-81
2024/01/03 03:09:40;;;;;;;2.20;2.20;;;8.70;83.30;;;;;;6298622;28;20229;-81
2024/01/03 03:12:43;;;;;;;2.33;2.33;;;8.60;83.40;;;;;;6299574;28;20614;-80
2024/01/03 03:15:46;;;;;;;2.20;2.20;;;8.60;83.40;;;;;;6301856;28;20329;-82
2024/01/03 03:18:49;;;;;;;2.13;2.13;;;8.60;83.30;;;;;;6300501;28;20312;-81
2024/01/03 03:21:53;;;;;;;2.00;2.00;;;8.60;83.30;;;;;;6300235;28;20232;-83
2024/01/03 03:24:57;;;;;;;2.30;2.20;;;8.70;83.30;;;;;;6304936;28;20235;-82
2024/01/03 03:28:10;;;;;;;2.17;2.17;;;8.70;83.00;;;;;;6298487;28;20237;-81
2024/01/03 03:31:13;;;;;;;2.23;2.23;;;8.70;82.90;;;;;;6283599;28;20246;-80
2024/01/03 03:34:17;;;;;;;2.30;2.20;;;8.60;82.70;;;;;;6302778;28;20263;-82
2024/01/03 03:37:22;;;;;;;2.43;2.33;;;8.70;82.30;;;;;;6287889;28;20237;-81
2024/01/03 03:40:26;;;;;;;2.67;2.60;;;8.70;82.20;;;;;;6303263;28;20241;-80
2024/01/03 03:43:29;;;;;;;2.10;2.10;;;8.80;81.50;;;;;;6303132;28;20740;-80
2024/01/03 03:46:32;;;;;;;2.20;2.20;;;8.80;81.00;;;;;;6308554;28;20332;-82
2024/01/03 03:49:36;;;;;;;2.30;2.30;;;8.80;80.80;;;;;;6310642;28;20228;-81
2024/01/03 03:52:40;;;;;;;2.30;2.30;;;8.70;81.00;;;;;;6294115;28;20220;-80
2024/01/03 03:55:44;;;;;;;2.20;2.20;;;8.70;80.90;;;;;;6288865;28;20243;-81
2024/01/03 03:58:47;;;;;;;2.27;2.27;;;8.60;81.00;;;;;;6303356;28;20643;-80
2024/01/03 04:01:51;;;;;;;2.40;2.30;;;8.60;81.50;;;;;;6306639;28;20382;-81
2024/01/03 04:04:54;;;;;;;2.20;2.20;;;8.50;81.70;;;;;;6303281;28;20233;-80
2024/01/03 04:07:57;;;;;;;2.50;2.40;;;8.50;81.70;;;;;;6294360;28;20225;-81
2024/01/03 04:11:03;;;;;;;2.20;2.20;;;8.40;81.70;;;;;;6298116;28;20232;-77
2024/01/03 04:14:07;;;;;;;2.40;2.30;;;8.30;81.90;;;;;;6299125;28;20381;-78
2024/01/03 04:17:10;;;;;;;2.13;2.13;;;8.40;82.10;;;;;;6301618;28;20878;-81
2024/01/03 04:20:13;;;;;;;2.20;2.20;;;8.30;82.10;;;;;;6300802;28;20235;-81
2024/01/03 04:23:16;;;;;;;2.23;2.23;;;8.30;82.20;;;;;;6304091;28;20312;-81
2024/01/03 04:26:22;;;;;;;2.10;2.10;;;8.20;82.40;;;;;;6301168;28;20228;-81
2024/01/03 04:29:25;;;;;;;2.20;2.20;;;8.20;82.30;;;;;;6303041;28;20249;-80
2024/01/03 04:32:28;;;;;;;2.37;2.30;;;8.10;82.70;;;;;;6304428;28;20275;-80
2024/01/03 04:35:31;;;;;;;2.83;2.73;;;8.10;82.50;;;;;;6309695;28;20325;-78
2024/01/03 04:38:34;;;;;;;2.40;2.30;;;8.10;82.60;;;;;;6301146;28;20234;-79
2024/01/03 04:41:39;;;;;;;2.40;2.40;;;8.10;82.50;;;;;;6299133;28;20236;-80
2024/01/03 04:44:43;;;;;;;2.73;2.37;;;8.20;82.30;;;;;;6306607;28;20236;-79
2024/01/03 04:47:46;;;;;;;2.60;2.50;;;8.20;82.00;;;;;;6297247;28;20706;-81
2024/01/03 04:50:49;;;;;;;2.50;2.50;;;8.20;82.00;;;;;;6298394;28;20862;-79
2024/01/03 04:53:52;;;;;;;2.40;2.30;;;8.20;82.00;;;;;;6302125;28;20240;-82
2024/01/03 04:56:57;;;;;;;2.63;2.53;;;8.30;81.50;;;;;;6305774;28;20277;-79
2024/01/03 05:00:00;;;;;;;2.50;2.40;;;8.40;81.10;;;;;;6303853;28;20225;-80
2024/01/03 05:03:04;;;;;;;2.30;2.30;;;8.40;80.50;;;;;;6295556;28;20374;-80
2024/01/03 05:06:07;;;;;;;2.50;2.30;;;8.40;80.70;;;;;;6300052;28;20712;-81
2024/01/03 05:09:10;;;;;;;3.43;2.77;;;8.40;80.50;;;;;;6301481;28;20267;-80
2024/01/03 05:12:15;;;;;;;2.67;2.57;;;8.50;80.00;;;;;;6288081;28;20236;-79
2024/01/03 05:15:18;;;;;;;2.50;2.40;;;8.50;80.10;;;;;;6296609;28;20233;-81
2024/01/03 05:18:21;;;;;;;2.53;2.43;;;8.50;80.00;;;;;;6294680;28;20239;-81
2024/01/03 05:21:25;;;;;;;2.50;2.40;;;8.50;80.10;;;;;;6298824;28;20644;-81
2024/01/03 05:24:28;;;;;;;2.63;2.53;;;8.40;80.00;;;;;;6299940;28;20786;-82
2024/01/03 05:27:33;;;;;;;2.50;2.40;;;8.50;79.70;;;;;;6303945;28;20237;-80
2024/01/03 05:30:40;;;;;;;2.57;2.40;;;8.50;79.50;;;;;;6304004;28;20252;-82
2024/01/03 05:33:43;;;;;;;2.70;2.50;;;8.50;79.40;;;;;;6296089;28;20238;-81
2024/01/03 05:36:46;;;;;;;2.70;2.60;;;8.50;78.90;;;;;;6305900;28;20628;-82
2024/01/03 05:39:49;;;;;;;2.30;2.30;;;8.60;78.90;;;;;;6309042;28;20243;-81
2024/01/03 05:42:54;;;;;;;2.90;2.70;;;8.60;78.40;;;;;;6308190;28;20316;-80
2024/01/03 05:45:57;;;;;;;2.60;2.40;;;8.60;78.40;;;;;;6312858;28;20237;-80
2024/01/03 05:49:00;;;;;;;2.60;2.50;;;8.60;78.20;;;;;;6307963;28;21416;-81
2024/01/03 05:52:04;;;;;;;3.00;2.87;;;8.60;77.90;;;;;;6291405;28;20229;-79
2024/01/03 05:55:08;;;;;;;3.70;2.53;;;8.60;77.80;;;;;;6306637;28;20245;-81
2024/01/03 05:58:12;;;;;;;2.60;2.50;;;8.60;77.60;;;;;;6302526;28;20260;-80
2024/01/03 06:01:16;;;;;;;2.77;2.67;;;8.60;77.60;;;;;;6307066;28;20302;-78
2024/01/03 06:04:20;;;;;;;2.63;2.43;;;8.60;77.70;;;;;;6299027;28;20248;-81
2024/01/03 06:07:23;;;;;;;2.67;2.40;;;8.60;77.60;;;;;;6304221;28;20264;-80
2024/01/03 06:10:26;;;;;;;4.40;2.50;;;8.60;77.30;;;;;;6306317;28;20805;-79
2024/01/03 06:13:30;;;;;;;2.43;2.33;;;8.70;77.00;;;;;;6299261;28;20236;-79
2024/01/03 06:16:33;;;;;;;2.67;2.43;;;8.80;76.80;;;;;;6305129;28;20768;-79
2024/01/03 06:19:36;;;;;;;3.03;2.93;;;8.80;76.60;;;;;;6300921;28;20234;-80
2024/01/03 06:22:39;;;;;;;2.53;2.50;;;8.80;76.80;;;;;;6298033;28;20233;-79
2024/01/03 06:25:43;;;;;;;3.40;2.50;;;8.70;76.60;;;;;;6306832;28;20245;-77
2024/01/03 06:28:47;;;;;;;2.30;2.30;;;8.80;76.50;;;;;;6313594;28;20323;-81
2024/01/03 06:31:50;;;;;;;2.50;2.40;;;8.90;76.20;;;;;;6305953;28;20459;-80
2024/01/03 06:34:53;;;;;;;2.70;2.50;;;8.90;76.40;;;;;;6297015;28;21003;-78
2024/01/03 06:37:57;;;;;;;4.63;2.73;;;8.80;76.70;;;;;;6300865;28;20246;-77
2024/01/03 06:41:01;;;;;;;2.53;2.43;;;8.80;76.50;;;;;;6311028;28;20240;-76
2024/01/03 06:44:06;;;;;;;2.73;2.53;;;8.70;76.50;;;;;;6312502;28;20244;-76
2024/01/03 06:47:09;;;;;;;3.67;2.57;;;8.70;76.40;;;;;;6309319;28;20267;-77
2024/01/03 06:50:13;;;;;;;2.67;2.47;;;8.80;76.40;;;;;;6309467;28;20322;-76
2024/01/03 06:53:16;;;;;;;2.77;2.57;;;8.80;76.40;;;;;;6298819;28;20237;-75
2024/01/03 06:56:23;;;;;;;2.90;2.70;;;8.90;76.30;;;;;;6306885;28;20245;-77
2024/01/03 06:59:28;;;;;;;2.87;2.70;;;8.90;76.60;;;;;;6301885;28;20240;-74
2024/01/03 07:02:31;;;;;;;2.87;2.77;;;8.90;76.50;;;;;;6310030;28;20260;-77
2024/01/03 07:05:34;;;;;;;2.80;2.60;;;8.80;76.80;;;;;;6308724;28;20270;-76
2024/01/03 07:08:37;;;;;;;3.80;2.87;;;8.80;77.00;;;;;;6303918;28;20244;-77
2024/01/03 07:11:41;;;;;;;3.40;2.83;;;8.80;77.50;;;;;;6302245;28;20228;-78
2024/01/03 07:14:45;;;;;;;2.87;2.67;;;8.60;77.80;;;;;;6295259;28;20228;-77
2024/01/03 07:17:48;;;;;;;2.70;2.50;;;8.60;77.80;;;;;;6307274;28;20262;-77
2024/01/03 07:20:51;;;;;;;2.70;2.50;;;8.60;77.80;;;;;;6296896;28;20230;-76
2024/01/03 07:23:54;;;;;;;4.00;2.70;;;8.60;77.90;;;;;;6298613;28;20649;-75
2024/01/03 07:27:01;;;;;;;3.00;2.87;;;8.60;77.90;;;;;;6303690;28;20308;-78
2024/01/03 07:30:07;;;;;;;3.53;3.23;;;8.60;77.70;;;;;;6308943;28;20236;-77
2024/01/03 07:33:10;;;;;;;2.90;2.70;;;8.60;77.80;;;;;;6306473;28;20747;-77
2024/01/03 07:36:19;;;;;;;2.77;2.57;;;8.60;77.80;;;;;;6293960;28;20236;-78
2024/01/03 07:39:22;;;;;;;3.20;2.60;;;8.80;76.50;;;;;;6310580;28;20235;-76
2024/01/03 07:42:25;;;;;;;4.30;2.73;;;8.70;76.60;;;;;;6300931;28;20241;-79
2024/01/03 07:45:30;;;;;;;3.27;2.80;;;8.80;76.50;;;;;;6307566;28;20270;-76
2024/01/03 07:48:33;;;;;;;2.93;2.60;;;8.80;76.20;;;;;;6303430;28;20693;-76
2024/01/03 07:51:38;;;;;;;2.70;2.60;;;8.90;75.60;;;;;;6305022;28;20264;-75
2024/01/03 07:54:42;;;;;;;2.80;2.70;;;8.90;74.80;;;;;;6307264;28;20243;-76
2024/01/03 07:57:45;;;;;;;2.73;2.60;;;9.00;75.00;;;;;;6305885;28;20241;-76
2024/01/03 08:00:49;;;;;;;3.37;3.07;;;9.00;74.90;;;;;;6301871;28;20260;-77
2024/01/03 08:03:54;;;;;;;3.10;3.00;;;8.90;75.00;;;;;;6301664;28;20326;-76
2024/01/03 08:06:57;;;;;;;3.10;2.80;;;9.00;74.60;;;;;;6300505;28;20252;-76
2024/01/03 08:10:00;;;;;;;2.77;2.57;;;9.00;74.60;;;;;;6298203;28;20248;-75
2024/01/03 08:13:04;;;;;;;3.43;2.87;;;8.90;74.20;;;;;;6305155;28;20244;-77
2024/01/03 08:16:08;;;;;;;2.80;2.70;;;9.00;74.10;;;;;;6302830;28;20240;-76
2024/01/03 08:19:11;;;;;;;4.10;2.80;;;9.00;74.30;;;;;;6297617;28;20232;-77
2024/01/03 08:22:15;;;;;;;3.17;2.90;;;8.90;74.00;;;;;;6305139;28;20605;-75
2024/01/03 08:25:18;;;;;;;3.00;2.90;;;9.00;74.00;;;;;;6298008;28;20244;-77
2024/01/03 08:28:21;;;;;;;3.17;2.97;;;9.00;73.80;;;;;;6295812;28;20620;-75
2024/01/03 08:31:26;;;;;;;2.60;2.50;;;9.00;73.80;;;;;;6283937;28;20733;-77
2024/01/03 08:34:29;;;;;;;3.13;2.53;;;9.00;73.60;;;;;;6298196;28;20240;-77
2024/01/03 08:37:32;;;;;;;3.10;2.80;;;9.00;73.50;;;;;;6306342;28;20252;-77
2024/01/03 08:40:35;;;;;;;2.60;2.50;;;9.00;73.40;;;;;;6302071;28;20225;-76
2024/01/03 08:43:38;;;;;;;2.97;2.60;;;9.20;73.30;;;;;;6304639;28;20286;-75
2024/01/03 08:46:43;;;;;;;3.33;2.63;;;9.10;73.20;;;;;;6296394;28;20232;-78
2024/01/03 08:49:46;;;;;;;2.90;2.70;;;9.20;73.20;;;;;;6300259;28;20767;-76
2024/01/03 08:52:50;;;;;;;2.80;2.70;;;9.10;73.60;;;;;;6299264;28;20236;-76
2024/01/03 08:55:53;;;;;;;2.83;2.73;;;9.20;73.30;;;;;;6300284;28;20298;-77
2024/01/03 08:58:56;;;;;;;3.00;2.90;;;9.20;72.90;;;;;;6291386;28;20229;-76
2024/01/03 09:02:01;;;;;;;3.20;3.00;;;9.30;72.60;;;;;;6298030;28;20274;-77
2024/01/03 09:05:05;;;;;;;3.13;2.73;;;9.30;72.80;;;;;;6305370;28;20263;-77
2024/01/03 09:08:08;;;;;;;2.67;2.50;;;9.20;72.60;;;;;;6312311;28;20264;-75
2024/01/03 09:11:12;;;;;;;2.80;2.70;;;9.30;72.60;;;;;;6301112;28;20228;-75
2024/01/03 09:14:16;;;;;;;2.90;2.80;;;9.40;72.50;;;;;;6299234;28;20256;-76
2024/01/03 09:17:20;;;;;;;2.60;2.60;;;9.40;72.70;;;;;;6314986;28;20248;-77
2024/01/03 09:20:23;;;;;;;2.87;2.67;;;9.40;72.70;;;;;;6315772;28;20232;-75
2024/01/03 09:23:28;;;;;;;3.57;2.80;;;9.50;72.30;;;;;;6309443;28;20225;-74
2024/01/03 09:26:31;;;;;;;2.67;2.53;;;9.60;71.80;;;;;;6309031;28;20920;-77
2024/01/03 09:29:34;;;;;;;2.53;2.53;;;9.70;71.70;;;;;;6309207;28;20236;-77
2024/01/03 09:32:39;;;;;;;2.83;2.73;;;9.70;71.80;;;;;;6300849;28;20260;-78
2024/01/03 09:35:43;;;;;;;2.47;2.37;;;9.80;71.30;;;;;;6293237;28;20244;-76
2024/01/03 09:38:47;;;;;;;3.67;3.07;;;9.80;71.20;;;;;;6303661;28;20734;-76
2024/01/03 09:41:50;;;;;;;2.90;2.80;;;9.90;71.00;;;;;;6312284;28;20236;-76
2024/01/03 09:44:54;;;;;;;2.80;2.70;;;10.00;70.90;;;;;;6300012;28;20320;-76
2024/01/03 09:47:58;;;;;;;2.77;2.67;;;10.00;70.40;;;;;;6298507;28;20676;-76
2024/01/03 09:51:03;;;;;;;3.17;2.77;;;10.10;70.00;;;;;;6305574;28;20236;-75
2024/01/03 09:54:08;;;;;;;3.57;2.57;;;10.20;69.60;;;;;;6301778;28;20802;-75
2024/01/03 09:57:14;;;;;;;2.43;2.43;;;10.20;69.70;;;;;;6307432;28;20739;-76
2024/01/03 10:00:18;;;;;;;2.63;2.50;;;10.20;70.10;;;;;;6305201;28;20249;-76
2024/01/03 10:03:22;;;;;;;3.47;2.70;;;10.20;70.00;;;;;;6305039;28;20629;-77
2024/01/03 10:06:26;;;;;;;2.67;2.50;;;10.20;70.00;;;;;;6303357;28;20233;-76
2024/01/03 10:09:41;;;;;;;3.13;2.83;;;10.30;69.70;;;;;;6304972;28;20229;-77
2024/01/03 10:12:44;;;;;;;2.87;2.67;;;10.30;70.20;;;;;;6312098;28;20731;-79
2024/01/03 10:15:48;;;;;;;2.90;2.60;;;10.30;70.10;;;;;;6308705;28;20240;-76
2024/01/03 10:19:11;;;;;;;2.90;2.80;;;10.30;69.60;;;;;;6308083;28;20237;-76
2024/01/03 10:22:19;;;;;;;2.20;2.20;;;10.30;69.80;;;;;;6292206;28;20233;-76
2024/01/03 10:25:23;;;;;;;2.37;2.30;;;10.40;69.80;;;;;;6297877;28;20240;-77
2024/01/03 10:28:26;;;;;;;3.97;2.80;;;10.50;69.70;;;;;;6299601;28;20247;-76
2024/01/03 10:31:30;;;;;;;3.80;2.53;;;10.50;69.60;;;;;;6306492;28;20251;-76
2024/01/03 10:34:34;;;;;;;3.90;2.77;;;10.60;69.30;;;;;;6304421;28;20841;-78
2024/01/03 10:37:37;;;;;;;3.33;3.00;;;10.70;68.80;;;;;;6303718;28;20230;-75
2024/01/03 10:40:41;;;;;;;3.33;2.70;;;10.80;69.10;;;;;;6298552;28;20743;-75
2024/01/03 10:43:46;;;;;;;4.07;2.70;;;10.90;68.70;;;;;;6311191;28;20244;-75
2024/01/03 10:46:51;;;;;;;3.90;2.80;;;10.90;68.50;;;;;;6313518;28;20248;-76
2024/01/03 10:49:56;;;;;;;3.90;2.60;;;10.90;68.70;;;;;;6312314;28;20237;-77
2024/01/03 10:53:02;;;;;;;2.90;2.70;;;10.90;68.60;;;;;;6303703;28;20665;-76
2024/01/03 10:56:05;;;;;;;2.47;2.47;;;10.90;68.50;;;;;;6311910;28;20228;-76
2024/01/03 10:59:10;;;;;;;2.60;2.40;;;10.90;68.60;;;;;;6282403;28;20278;-76
2024/01/03 11:02:22;;;;;;;3.10;2.80;;;10.90;68.70;;;;;;6300501;28;20862;-78
2024/01/03 11:05:35;;;;;;;2.80;2.57;;;11.00;68.40;;;;;;6310808;28;20237;-76
2024/01/03 11:08:47;;;;;;;2.80;2.70;;;10.90;68.50;;;;;;6306005;28;20233;-74
2024/01/03 11:11:50;;;;;;;3.10;2.80;;;10.90;68.60;;;;;;6304795;28;20244;-78
2024/01/03 11:14:54;;;;;;;2.60;2.40;;;10.90;68.60;;;;;;6305912;28;20228;-75
2024/01/03 11:17:57;;;;;;;3.37;3.07;;;11.00;68.60;;;;;;6307605;28;20243;-78
2024/01/03 11:21:37;;;;;;;3.43;2.93;;;10.90;68.90;;;;;;6300818;28;20240;-77
2024/01/03 11:24:46;;;;;;;5.27;3.70;;;11.00;68.80;;;;;;6300154;28;20258;-77
2024/01/03 11:27:49;;;;;;;2.77;2.47;;;11.00;68.70;;;;;;6300828;28;20228;-76
2024/01/03 11:30:52;;;;;;;3.23;2.70;;;11.00;68.70;;;;;;6298436;28;20253;-76
2024/01/03 11:33:55;;;;;;;4.30;2.60;;;10.90;69.00;;;;;;6299610;28;20265;-77
2024/01/03 11:37:00;;;;;;;3.23;2.93;;;10.90;68.70;;;;;;6300667;28;20304;-77
2024/01/03 11:40:06;;;;;;;2.53;2.43;;;10.90;69.20;;;;;;6299025;28;20236;-76
2024/01/03 11:43:10;;;;;;;3.00;2.77;;;10.80;69.30;;;;;;6303173;28;20733;-77
2024/01/03 11:46:15;;;;;;;2.87;2.70;;;10.90;69.20;;;;;;6304674;28;20238;-77
2024/01/03 11:49:22;;;;;;;4.57;3.07;;;10.90;70.00;;;;;;6298350;28;20621;-77
2024/01/03 11:52:26;;;;;;;4.67;3.17;;;10.90;69.30;;;;;;6301347;28;20237;-77
2024/01/03 11:55:29;;;;;;;2.63;2.43;;;11.00;69.20;;;;;;6310099;28;20321;-76
2024/01/03 11:58:33;;;;;;;3.03;2.83;;;11.00;68.90;;;;;;6305879;28;20236;-74
2024/01/03 12:01:36;;;;;;;3.70;2.60;;;11.00;68.70;;;;;;6309878;28;20276;-74
2024/01/03 12:04:41;;;;;;;4.47;2.70;;;10.90;69.30;;;;;;6300577;28;20237;-77
2024/01/03 12:07:46;;;;;;;2.83;2.73;;;10.90;69.70;;;;;;6294829;28;20232;-75
2024/01/03 12:10:54;;;;;;;3.43;3.10;;;10.90;69.60;;;;;;6293007;28;20249;-75
2024/01/03 12:13:57;;;;;;;3.00;2.70;;;10.90;70.10;;;;;;6308144;28;20240;-75
2024/01/03 12:17:00;;;;;;;3.17;2.87;;;10.90;69.90;;;;;;6302290;28;20775;-76
2024/01/03 12:20:08;;;;;;;2.80;2.60;;;10.90;70.40;;;;;;6303947;28;20299;-76
2024/01/03 12:23:14;;;;;;;3.33;3.00;;;10.80;70.80;;;;;;6310280;28;20256;-76
2024/01/03 12:26:18;;;;;;;3.60;3.30;;;10.70;71.00;;;;;;6305957;28;20669;-77
2024/01/03 12:29:21;;;;;;;3.57;2.87;;;10.60;71.20;;;;;;6305255;28;20279;-75
2024/01/03 12:32:24;;;;;;;3.03;2.87;;;10.60;71.20;;;;;;6302883;28;20248;-76
2024/01/03 12:35:28;;;;;;;7.03;3.07;;;10.70;71.30;;;;;;6296161;28;20232;-77
2024/01/03 12:38:32;;;;;;;4.67;3.43;;;10.60;71.80;;;;;;6305680;28;20240;-75
2024/01/03 12:41:35;;;;;;;4.57;3.30;;;10.60;71.80;;;;;;6303339;28;20229;-77
2024/01/03 12:44:40;;;;;;;4.43;3.10;;;10.50;72.20;;;;;;6292886;28;20237;-75
2024/01/03 12:47:43;;;;;;;5.30;3.20;;;10.50;72.10;;;;;;6300411;28;20283;-76
2024/01/03 12:50:47;;;;;;;3.47;3.27;;;10.50;72.20;;;;;;6303389;28;20262;-76
2024/01/03 12:53:51;;;;;;;4.70;3.40;;;10.50;72.50;;;;;;6303013;28;20262;-75
2024/01/03 12:56:54;;;;;;;4.20;3.30;;;10.50;71.90;;;;;;6296995;28;20286;-76
2024/01/03 12:59:59;;;;;;;4.67;3.53;;;10.40;72.60;;;;;;6294186;28;20925;-74
2024/01/03 13:03:03;;;;;;;3.60;3.30;;;10.30;72.90;;;;;;6304282;28;20238;-75
2024/01/03 13:06:06;;;;;;;5.43;3.53;;;10.30;72.50;;;;;;6292997;28;20244;-76
2024/01/03 13:09:11;;;;;;;4.40;3.63;;;10.40;72.20;;;;;;6302920;28;20374;-76
2024/01/03 13:12:14;;;;;;;7.80;3.30;;;10.50;71.70;;;;;;6283005;28;20854;-75
2024/01/03 13:15:17;;;;;;;5.20;3.80;;;10.40;71.80;;;;;;6292727;28;20274;-76
2024/01/03 13:18:21;;;;;;;3.63;3.20;;;10.50;71.40;;;;;;6293625;28;20283;-76
2024/01/03 13:21:24;;;;;;;3.10;2.90;;;10.50;71.00;;;;;;6309800;28;20233;-76
2024/01/03 13:24:29;;;;;;;6.43;3.13;;;10.60;70.10;;;;;;6296314;28;20332;-76
2024/01/03 13:27:32;;;;;;;4.17;3.10;;;10.60;70.40;;;;;;6298445;28;20237;-79
2024/01/03 13:30:35;;;;;;;3.60;3.10;;;10.70;69.60;;;;;;6299000;28;20740;-75
2024/01/03 13:33:38;;;;;;;6.57;2.90;;;10.70;69.40;;;;;;6297751;28;20233;-76
2024/01/03 13:36:42;;;;;;;5.13;3.47;;;10.70;69.30;;;;;;6296707;28;20233;-76
2024/01/03 13:39:47;;;;;;;5.80;3.23;;;10.80;68.90;;;;;;6298333;28;20252;-77
2024/01/03 13:42:50;;;;;;;3.00;2.80;;;10.90;69.00;;;;;;6308026;28;20225;-74
2024/01/03 13:45:53;;;;;;;2.80;2.70;;;10.80;69.00;;;;;;6300758;28;20674;-76
2024/01/03 13:48:56;;;;;;;4.50;3.07;;;10.80;69.00;;;;;;6302231;28;20233;-76
2024/01/03 13:52:00;;;;;;;3.43;2.93;;;10.90;68.80;;;;;;6299305;28;20900;-76
2024/01/03 13:55:05;;;;;;;3.30;3.00;;;10.80;69.50;;;;;;6297701;28;20229;-77
2024/01/03 13:58:08;;;;;;;4.33;2.70;;;10.90;69.10;;;;;;6310078;28;20237;-76
2024/01/03 14:01:11;;;;;;;3.50;3.20;;;10.90;68.80;;;;;;6312474;28;20366;-76
2024/01/03 14:04:14;;;;;;;5.17;3.10;;;10.90;68.80;;;;;;6300716;28;20236;-75
2024/01/03 14:07:18;;;;;;;4.43;2.57;;;10.80;69.30;;;;;;6298749;28;20233;-76
2024/01/03 14:10:22;;;;;;;2.40;2.30;;;10.80;69.40;;;;;;6299617;28;20325;-75
2024/01/03 14:13:27;;;;;;;3.37;3.17;;;10.80;69.10;;;;;;6313708;28;20233;-76
2024/01/03 14:16:30;;;;;;;2.63;2.50;;;10.80;69.70;;;;;;6306108;28;20229;-75
2024/01/03 14:19:33;;;;;;;2.77;2.67;;;10.60;70.10;;;;;;6300067;28;20237;-75
2024/01/03 14:22:36;;;;;;;2.87;2.47;;;10.60;70.40;;;;;;6305039;28;20893;-76
2024/01/03 14:25:41;;;;;;;2.53;2.47;;;10.50;70.80;;;;;;6306274;28;20442;-74
2024/01/03 14:28:44;;;;;;;2.63;2.43;;;10.40;71.10;;;;;;6301052;28;20236;-75
2024/01/03 14:31:47;;;;;;;3.03;2.73;;;10.40;71.30;;;;;;6299717;28;20246;-74
2024/01/03 14:34:50;;;;;;;3.07;2.80;;;10.30;71.20;;;;;;6293167;28;20824;-75
2024/01/03 14:37:53;;;;;;;2.83;2.60;;;10.30;71.40;;;;;;6301262;28;20256;-77
2024/01/03 14:40:58;;;;;;;3.07;2.80;;;10.20;71.60;;;;;;6305875;28;20697;-76
2024/01/03 14:44:04;;;;;;;3.67;2.60;;;10.20;71.60;;;;;;6307136;28;20311;-75
2024/01/03 14:47:07;;;;;;;2.50;2.37;;;10.10;72.00;;;;;;6297506;28;20702;-75
2024/01/03 14:50:11;;;;;;;2.53;2.50;;;10.00;72.10;;;;;;6300429;28;20221;-75
2024/01/03 14:53:14;;;;;;;6.30;2.67;;;10.00;72.40;;;;;;6301107;28;20320;-75
2024/01/03 14:56:18;;;;;;;2.70;2.50;;;10.00;72.60;;;;;;6307152;28;20370;-77
2024/01/03 14:59:21;;;;;;;2.87;2.87;;;9.90;73.00;;;;;;6306942;28;20236;-74
2024/01/03 15:02:25;;;;;;;2.80;2.70;;;9.90;73.10;;;;;;6303619;28;20406;-75
2024/01/03 15:05:33;;;;;;;3.07;2.87;;;9.80;73.10;;;;;;6304821;28;20241;-76
2024/01/03 15:08:37;;;;;;;2.63;2.53;;;9.80;73.20;;;;;;6303173;28;20237;-75
2024/01/03 15:11:42;;;;;;;2.90;2.80;;;9.80;73.40;;;;;;6296971;28;20266;-76
2024/01/03 15:14:46;;;;;;;3.33;2.80;;;9.80;72.90;;;;;;6301277;28;20270;-75
2024/01/03 15:17:50;;;;;;;5.93;4.07;;;10.00;72.60;;;;;;6311799;28;20248;-76
2024/01/03 15:20:53;;;;;;;3.30;3.20;;;9.90;72.70;;;;;;6305738;28;20243;-75
2024/01/03 15:23:57;;;;;;;3.00;2.80;;;9.80;72.40;;;;;;6301687;28;20237;-74
2024/01/03 15:27:02;;;;;;;2.90;2.80;;;9.80;72.50;;;;;;6307953;28;20236;-75
2024/01/03 15:30:07;;;;;;;2.83;2.70;;;9.80;72.50;;;;;;6309221;28;20231;-75
2024/01/03 15:33:11;;;;;;;3.17;2.57;;;9.90;72.20;;;;;;6313282;28;20232;-75
2024/01/03 15:36:16;;;;;;;2.80;2.60;;;9.80;72.10;;;;;;6307466;28;20225;-75
2024/01/03 15:39:19;;;;;;;3.00;2.90;;;9.90;71.70;;;;;;6302788;28;20240;-78
2024/01/03 15:42:23;;;;;;;3.00;2.80;;;9.90;71.80;;;;;;6291174;28;20233;-78
2024/01/03 15:45:27;;;;;;;3.10;2.90;;;9.90;71.70;;;;;;6302169;28;20309;-77
2024/01/03 15:48:30;;;;;;;3.23;2.90;;;9.90;71.30;;;;;;6303159;28;20263;-75
2024/01/03 15:51:33;;;;;;;2.93;2.63;;;10.00;71.30;;;;;;6306761;28;20282;-75
2024/01/03 15:54:38;;;;;;;2.83;2.73;;;9.80;71.70;;;;;;6313916;28;20241;-75
2024/01/03 15:57:51;;;;;;;2.70;2.70;;;9.90;71.40;;;;;;6310158;28;20406;-77
2024/01/03 16:00:54;;;;;;;2.63;2.53;;;9.80;71.50;;;;;;6308251;28;20245;-75
2024/01/03 16:03:57;;;;;;;2.70;2.60;;;9.80;71.50;;;;;;6295479;28;20233;-76
2024/01/03 16:07:01;;;;;;;2.57;2.47;;;9.80;71.50;;;;;;6307051;28;20235;-75